createdAt,value
2022-11-24T00:01:07.689Z,88.04
2022-11-24T00:04:11.781Z,87.97
2022-11-24T00:07:14.992Z,87.92
2022-11-24T00:10:21.478Z,87.79
2022-11-24T00:13:25.514Z,88.26
2022-11-24T00:16:36.583Z,87.91
2022-11-24T00:19:39.185Z,87.61
2022-11-24T00:22:41.648Z,88.27
2022-11-24T00:25:44.195Z,88.53
2022-11-24T00:28:48.360Z,88.22
2022-11-24T00:31:50.791Z,87.76
2022-11-24T00:34:54.007Z,88.30
2022-11-24T00:37:56.512Z,88.23
2022-11-24T00:40:58.952Z,88.30
2022-11-24T00:44:01.641Z,88.27
2022-11-24T00:47:04.177Z,88.79
2022-11-24T00:50:07.350Z,88.33
2022-11-24T00:53:10.546Z,88.23
2022-11-24T00:56:13.610Z,88.19
2022-11-24T00:59:17.041Z,88.51
2022-11-24T01:02:19.681Z,87.86
2022-11-24T01:05:23.074Z,88.02
2022-11-24T01:08:25.661Z,88.61
2022-11-24T01:11:54.573Z,88.13
2022-11-24T01:14:58.878Z,89.13
2022-11-24T01:18:01.468Z,88.96
2022-11-24T01:21:09.864Z,88.53
2022-11-24T01:24:13.601Z,88.54
2022-11-24T01:27:16.583Z,88.70
2022-11-24T01:30:22.640Z,88.85
2022-11-24T01:33:26.239Z,88.81
2022-11-24T01:36:29.603Z,88.60
2022-11-24T01:39:32.382Z,88.79
2022-11-24T01:42:50.695Z,88.60
2022-11-24T01:45:54.823Z,88.43
2022-11-24T01:49:11.932Z,88.50
2022-11-24T01:52:20.039Z,88.60
2022-11-24T01:55:28.811Z,88.83
2022-11-24T01:58:36.792Z,88.43
2022-11-24T02:01:40.440Z,88.99
2022-11-24T02:04:45.494Z,89.11
2022-11-24T02:07:48.793Z,88.22
2022-11-24T02:10:54.884Z,88.88
2022-11-24T02:13:58.449Z,88.73
2022-11-24T02:17:01.736Z,88.68
2022-11-24T02:20:07.957Z,88.49
2022-11-24T02:23:28.527Z,88.81
2022-11-24T02:26:48.465Z,88.32
2022-11-24T02:29:51.784Z,88.83
2022-11-24T02:32:55.339Z,88.14
2022-11-24T02:35:58.840Z,88.25
2022-11-24T02:39:03.621Z,89.00
2022-11-24T02:42:12.944Z,88.86
2022-11-24T02:45:16.682Z,88.22
2022-11-24T02:48:19.685Z,87.82
2022-11-24T02:51:23.223Z,87.98
2022-11-24T02:54:25.857Z,87.61
2022-11-24T02:57:28.378Z,87.62
2022-11-24T03:00:30.912Z,86.45
2022-11-24T03:03:33.629Z,86.78
2022-11-24T03:06:36.760Z,87.02
2022-11-24T03:09:39.403Z,86.65
2022-11-24T03:12:43.157Z,86.59
2022-11-24T03:15:45.538Z,86.58
2022-11-24T03:18:51.176Z,86.20
2022-11-24T03:21:53.655Z,86.83
2022-11-24T03:24:56.748Z,86.36
2022-11-24T03:27:59.732Z,86.09
2022-11-24T03:31:02.765Z,86.31
2022-11-24T03:34:06.329Z,86.38
2022-11-24T03:37:09.807Z,86.06
2022-11-24T03:40:13.402Z,86.52
2022-11-24T03:43:15.951Z,86.15
2022-11-24T03:46:19.356Z,86.68
2022-11-24T03:49:22.073Z,85.68
2022-11-24T03:52:26.672Z,86.17
2022-11-24T03:55:30.762Z,86.13
2022-11-24T03:58:33.788Z,86.22
2022-11-24T04:01:36.270Z,85.86
2022-11-24T04:04:39.344Z,85.68
2022-11-24T04:07:42.066Z,85.75
2022-11-24T04:10:44.822Z,85.34
2022-11-24T04:13:48.303Z,85.28
2022-11-24T04:16:51.297Z,85.97
2022-11-24T04:19:54.350Z,86.02
2022-11-24T04:22:57.790Z,85.33
2022-11-24T04:26:00.236Z,85.87
2022-11-24T04:29:03.383Z,85.09
2022-11-24T04:32:06.448Z,85.60
2022-11-24T04:35:10.485Z,85.74
2022-11-24T04:38:13.864Z,85.44
2022-11-24T04:41:37.317Z,85.27
2022-11-24T04:44:39.846Z,85.16
2022-11-24T04:47:42.286Z,85.12
2022-11-24T04:50:44.822Z,85.50
2022-11-24T04:53:49.169Z,84.26
2022-11-24T04:56:52.662Z,84.32
2022-11-24T04:59:55.428Z,84.40
2022-11-24T05:02:58.928Z,83.86
2022-11-24T05:06:02.912Z,83.52
2022-11-24T05:09:08.509Z,83.33
2022-11-24T05:12:11.888Z,83.33
2022-11-24T05:15:14.350Z,83.02
2022-11-24T05:18:16.919Z,83.01
2022-11-24T05:21:19.527Z,82.77
2022-11-24T05:24:22.877Z,82.59
2022-11-24T05:27:26.353Z,82.56
2022-11-24T05:30:30.995Z,82.79
2022-11-24T05:33:35.023Z,82.29
2022-11-24T05:36:57.700Z,82.43
2022-11-24T05:40:00.738Z,82.48
2022-11-24T05:43:03.691Z,82.33
2022-11-24T05:46:06.264Z,82.26
2022-11-24T05:49:08.858Z,82.36
2022-11-24T05:52:11.375Z,82.07
2022-11-24T05:55:15.568Z,80.94
2022-11-24T05:58:18.289Z,81.17
2022-11-24T06:01:20.903Z,81.19
2022-11-24T06:04:23.333Z,80.33
2022-11-24T06:07:25.814Z,80.24
2022-11-24T06:10:28.594Z,80.14
2022-11-24T06:13:31.137Z,80.54
2022-11-24T06:16:34.446Z,80.13
2022-11-24T06:19:41.852Z,80.16
2022-11-24T06:22:45.925Z,80.04
2022-11-24T06:25:51.607Z,79.83
2022-11-24T06:28:55.008Z,79.36
2022-11-24T06:31:57.605Z,79.10
2022-11-24T06:35:01.053Z,78.86
2022-11-24T06:38:05.220Z,78.14
2022-11-24T06:41:13.149Z,78.41
2022-11-24T06:44:15.667Z,78.29
2022-11-24T06:47:24.579Z,78.33
2022-11-24T06:50:44.348Z,77.92
2022-11-24T06:57:26.505Z,78.12
2022-11-24T07:00:35.026Z,77.71
2022-11-24T07:03:42.230Z,77.80
2022-11-24T07:06:45.224Z,78.06
2022-11-24T07:09:48.673Z,77.66
2022-11-24T07:12:52.187Z,77.87
2022-11-24T07:15:55.582Z,78.22
2022-11-24T07:18:59.811Z,78.34
2022-11-24T07:22:03.641Z,77.92
2022-11-24T07:25:09.855Z,77.96
2022-11-24T07:28:12.647Z,77.45
2022-11-24T07:32:30.123Z,76.85
2022-11-24T07:41:47.336Z,76.73
2022-11-24T07:44:57.973Z,76.18
2022-11-24T07:48:17.226Z,75.97
2022-11-24T07:58:10.716Z,75.71
2022-11-24T08:01:25.678Z,75.34
2022-11-24T08:04:42.467Z,75.13
2022-11-24T08:07:45.760Z,75.83
2022-11-24T08:10:48.535Z,75.42
2022-11-24T08:13:51.539Z,76.18
2022-11-24T08:16:54.938Z,75.98
2022-11-24T08:19:58.204Z,75.38
2022-11-24T08:23:11.149Z,75.73
2022-11-24T08:26:23.499Z,75.76
2022-11-24T08:29:29.697Z,75.58
2022-11-24T08:32:33.550Z,75.67
2022-11-24T08:36:11.153Z,75.51
2022-11-24T08:39:14.204Z,75.71
2022-11-24T08:42:17.834Z,75.04
2022-11-24T08:45:26.036Z,74.75
2022-11-24T08:53:13.994Z,74.09
2022-11-24T08:56:19.689Z,74.49
2022-11-24T09:00:46.252Z,73.52
2022-11-24T09:04:12.118Z,73.54
2022-11-24T09:07:27.552Z,74.12
2022-11-24T09:12:18.831Z,73.92
2022-11-24T09:15:44.374Z,73.80
2022-11-24T09:28:58.696Z,74.18
2022-11-24T09:43:56.956Z,71.17
2022-11-24T09:49:14.214Z,70.53
2022-11-24T09:52:39.338Z,71.19
2022-11-24T09:55:58.178Z,71.07
2022-11-24T09:59:34.524Z,71.61
2022-11-24T10:03:21.231Z,71.72
2022-11-24T10:06:35.267Z,72.24
2022-11-24T10:09:51.957Z,72.91
2022-11-24T10:13:26.563Z,73.25
2022-11-24T10:16:51.523Z,72.82
2022-11-24T10:20:20.359Z,72.22
2022-11-24T10:28:52.885Z,73.14
2022-11-24T10:32:00.921Z,73.03
2022-11-24T10:35:18.601Z,73.75
2022-11-24T10:44:20.632Z,72.88
2022-11-24T10:47:26.738Z,73.32
2022-11-24T10:50:36.367Z,73.44
2022-11-24T10:53:41.067Z,72.60
2022-11-24T10:56:46.196Z,72.67
2022-11-24T10:59:52.918Z,72.61
2022-11-24T11:03:23.898Z,72.05
2022-11-24T11:06:32.392Z,71.98
2022-11-24T11:09:36.082Z,72.05
2022-11-24T11:12:44.954Z,70.90
2022-11-24T11:15:49.345Z,71.05
2022-11-24T11:18:53.785Z,70.96
2022-11-24T11:22:03.716Z,70.48
2022-11-24T11:25:19.524Z,70.27
2022-11-24T11:28:28.093Z,70.15
2022-11-24T11:31:41.368Z,70.08
2022-11-24T11:34:46.768Z,70.28
2022-11-24T11:37:51.710Z,70.06
2022-11-24T11:40:55.060Z,70.22
2022-11-24T11:44:22.711Z,69.94
2022-11-24T11:47:30.074Z,70.23
2022-11-24T11:51:14.853Z,69.74
2022-11-24T11:54:45.517Z,70.17
2022-11-24T11:58:05.566Z,69.48
2022-11-24T12:01:26.952Z,69.00
2022-11-24T12:04:43.957Z,68.69
2022-11-24T12:08:10.768Z,69.09
2022-11-24T12:11:34.565Z,68.63
2022-11-24T12:14:53.222Z,68.62
2022-11-24T12:18:56.433Z,69.23
2022-11-24T12:21:57.815Z,70.63
2022-11-24T12:25:32.695Z,70.55
2022-11-24T12:28:44.613Z,70.26
2022-11-24T12:32:26.613Z,69.67
2022-11-24T12:35:39.345Z,69.79
2022-11-24T12:38:42.790Z,69.52
2022-11-24T12:41:46.199Z,69.70
2022-11-24T12:45:13.181Z,69.58
2022-11-24T12:48:29.416Z,70.11
2022-11-24T12:51:39.881Z,70.34
2022-11-24T12:54:42.765Z,70.39
2022-11-24T12:58:36.697Z,70.43
2022-11-24T13:02:00.906Z,70.62
2022-11-24T13:05:33.359Z,70.87
2022-11-24T13:08:39.264Z,70.77
2022-11-24T13:11:44.744Z,70.80
2022-11-24T13:14:49.156Z,70.09
2022-11-24T13:18:07.139Z,69.54
2022-11-24T13:21:48.152Z,69.64
2022-11-24T13:25:22.664Z,69.87
2022-11-24T13:29:09.249Z,69.11
2022-11-24T13:32:23.458Z,69.87
2022-11-24T13:35:27.545Z,69.67
2022-11-24T13:38:42.037Z,70.05
2022-11-24T13:41:47.947Z,70.23
2022-11-24T13:44:52.725Z,70.22
2022-11-24T13:47:55.469Z,70.09
2022-11-24T13:51:04.222Z,70.43
2022-11-24T13:54:16.281Z,70.16
2022-11-24T13:57:40.138Z,70.37
2022-11-24T14:01:11.590Z,70.82
2022-11-24T14:05:30.052Z,70.77
2022-11-24T14:08:38.425Z,71.21
2022-11-24T14:11:42.142Z,71.35
2022-11-24T14:14:47.874Z,71.56
2022-11-24T14:17:53.149Z,71.42
2022-11-24T14:20:56.905Z,71.74
2022-11-24T14:24:04.279Z,71.83
2022-11-24T14:27:14.596Z,72.13
2022-11-24T14:30:20.941Z,72.60
2022-11-24T14:33:25.815Z,72.65
2022-11-24T14:36:28.655Z,73.01
2022-11-24T14:39:41.382Z,72.82
2022-11-24T14:42:50.641Z,73.19
2022-11-24T14:46:00.847Z,73.25
2022-11-24T14:49:04.932Z,73.45
2022-11-24T14:52:18.346Z,73.67
2022-11-24T14:55:28.179Z,73.44
2022-11-24T14:58:37.675Z,73.46
2022-11-24T15:01:43.385Z,73.05
2022-11-24T15:05:06.963Z,73.19
2022-11-24T15:08:14.511Z,72.84
2022-11-24T15:11:18.533Z,73.19
2022-11-24T15:14:52.197Z,73.04
2022-11-24T15:18:02.834Z,73.14
2022-11-24T15:21:06.580Z,73.05
2022-11-24T15:24:19.312Z,73.36
2022-11-24T15:27:21.941Z,73.63
2022-11-24T15:30:25.260Z,74.09
2022-11-24T15:33:28.614Z,74.32
2022-11-24T15:36:32.059Z,74.11
2022-11-24T15:39:34.915Z,74.66
2022-11-24T15:42:38.311Z,75.24
2022-11-24T15:45:41.875Z,75.09
2022-11-24T15:48:45.374Z,75.64
2022-11-24T15:51:48.543Z,75.33
2022-11-24T15:54:56.235Z,75.56
2022-11-24T15:57:58.860Z,75.39
2022-11-24T16:01:02.432Z,75.43
2022-11-24T16:04:05.782Z,75.50
2022-11-24T16:07:12.406Z,75.49
2022-11-24T16:10:28.360Z,75.95
2022-11-24T16:13:31.115Z,76.20
2022-11-24T16:16:33.819Z,76.52
2022-11-24T16:19:41.607Z,76.26
2022-11-24T16:22:45.146Z,76.84
2022-11-24T16:25:47.770Z,76.73
2022-11-24T16:28:50.525Z,77.34
2022-11-24T16:31:55.079Z,76.93
2022-11-24T16:34:58.367Z,77.31
2022-11-24T16:38:01.102Z,77.50
2022-11-24T16:41:04.181Z,77.74
2022-11-24T16:44:06.937Z,77.39
2022-11-24T16:47:12.691Z,77.41
2022-11-24T16:50:18.190Z,77.59
2022-11-24T16:53:21.420Z,77.54
2022-11-24T16:56:24.320Z,77.76
2022-11-24T16:59:27.052Z,77.69
2022-11-24T17:02:29.970Z,77.99
2022-11-24T17:05:32.639Z,77.79
2022-11-24T17:08:38.128Z,78.25
2022-11-24T17:11:41.545Z,78.88
2022-11-24T17:14:52.689Z,78.56
2022-11-24T17:18:24.012Z,78.67
2022-11-24T17:21:28.802Z,78.98
2022-11-24T17:24:32.226Z,79.18
2022-11-24T17:27:35.044Z,79.05
2022-11-24T17:30:38.259Z,78.69
2022-11-24T17:33:40.859Z,78.82
2022-11-24T17:36:46.105Z,79.45
2022-11-24T17:40:12.569Z,79.34
2022-11-24T17:43:13.364Z,79.67
2022-11-24T17:46:19.965Z,79.19
2022-11-24T17:49:23.632Z,79.61
2022-11-24T17:52:26.324Z,79.95
2022-11-24T17:55:29.475Z,79.65
2022-11-24T17:58:39.753Z,79.93
2022-11-24T18:01:45.367Z,80.27
2022-11-24T18:04:49.075Z,80.29
2022-11-24T18:07:51.634Z,79.83
2022-11-24T18:10:54.318Z,79.47
2022-11-24T18:14:01.138Z,78.86
2022-11-24T18:17:04.629Z,79.47
2022-11-24T18:20:07.928Z,79.14
2022-11-24T18:23:11.520Z,79.30
2022-11-24T18:26:16.220Z,78.82
2022-11-24T18:29:19.541Z,79.27
2022-11-24T18:32:22.157Z,79.40
2022-11-24T18:35:24.792Z,79.25
2022-11-24T18:38:28.569Z,79.37
2022-11-24T18:41:32.485Z,79.76
2022-11-24T18:44:36.390Z,79.37
2022-11-24T18:47:39.364Z,79.75
2022-11-24T18:50:44.573Z,79.93
2022-11-24T18:53:53.482Z,79.90
2022-11-24T18:57:01.747Z,80.20
2022-11-24T19:00:08.324Z,80.20
2022-11-24T19:03:11.041Z,80.40
2022-11-24T19:06:19.040Z,80.46
2022-11-24T19:09:23.004Z,81.00
2022-11-24T19:12:26.561Z,81.26
2022-11-24T19:15:33.993Z,81.43
2022-11-24T19:18:37.633Z,81.58
2022-11-24T19:21:43.331Z,81.63
2022-11-24T19:24:46.710Z,81.97
2022-11-24T19:27:49.412Z,81.96
2022-11-24T19:30:52.152Z,82.15
2022-11-24T19:33:58.049Z,82.15
2022-11-24T19:37:00.947Z,82.07
2022-11-24T19:40:05.188Z,82.31
2022-11-24T19:43:08.587Z,82.57
2022-11-24T19:46:14.770Z,82.67
2022-11-24T19:49:17.327Z,82.50
2022-11-24T19:52:20.129Z,82.48
2022-11-24T19:55:23.589Z,82.41
2022-11-24T19:58:26.544Z,82.59
2022-11-24T20:01:39.883Z,82.40
2022-11-24T20:04:43.771Z,82.12
2022-11-24T20:07:46.508Z,82.41
2022-11-24T20:10:50.238Z,82.28
2022-11-24T20:13:53.661Z,82.14
2022-11-24T20:16:57.218Z,81.94
2022-11-24T20:20:00.681Z,82.01
2022-11-24T20:23:03.520Z,81.58
2022-11-24T20:26:19.582Z,81.83
2022-11-24T20:29:23.173Z,81.77
2022-11-24T20:32:28.222Z,81.62
2022-11-24T20:35:30.878Z,81.67
2022-11-24T20:38:34.923Z,81.40
2022-11-24T20:41:40.081Z,81.32
2022-11-24T20:44:42.711Z,81.64
2022-11-24T20:47:45.381Z,81.33
2022-11-24T20:50:51.270Z,81.42
2022-11-24T20:53:59.563Z,81.21
2022-11-24T20:57:02.362Z,81.43
2022-11-24T21:00:06.576Z,81.24
2022-11-24T21:03:10.744Z,81.40
2022-11-24T21:06:14.726Z,81.00
2022-11-24T21:09:19.085Z,81.19
2022-11-24T21:12:22.182Z,81.28
2022-11-24T21:15:25.741Z,81.57
2022-11-24T21:18:28.310Z,81.51
2022-11-24T21:21:35.269Z,81.21
2022-11-24T21:24:38.723Z,80.91
2022-11-24T21:27:42.385Z,81.10
2022-11-24T21:30:45.688Z,81.49
2022-11-24T21:33:50.793Z,81.55
2022-11-24T21:36:53.408Z,81.79
2022-11-24T21:39:55.953Z,82.27
2022-11-24T21:42:59.701Z,82.04
2022-11-24T21:46:06.262Z,82.38
2022-11-24T21:49:09.131Z,82.40
2022-11-24T21:52:12.812Z,82.55
2022-11-24T21:55:15.530Z,82.57
2022-11-24T21:58:18.768Z,82.57
2022-11-24T22:01:28.240Z,82.59
2022-11-24T22:04:32.455Z,82.46
2022-11-24T22:07:35.889Z,82.57
2022-11-24T22:10:38.596Z,82.75
2022-11-24T22:13:43.586Z,82.92
2022-11-24T22:16:46.973Z,83.14
2022-11-24T22:19:50.286Z,82.93
2022-11-24T22:22:52.948Z,83.36
2022-11-24T22:25:55.654Z,83.19
2022-11-24T22:28:58.448Z,82.79
2022-11-24T22:32:01.856Z,82.78
2022-11-24T22:35:05.973Z,82.57
2022-11-24T22:38:09.341Z,82.82
2022-11-24T22:41:17.436Z,83.21
2022-11-24T22:44:19.985Z,83.12
2022-11-24T22:47:22.523Z,83.20
2022-11-24T22:50:25.152Z,83.13
2022-11-24T22:53:28.515Z,83.44
2022-11-24T22:56:33.020Z,83.37
2022-11-24T22:59:36.009Z,83.21
2022-11-24T23:02:38.632Z,83.15
2022-11-24T23:05:41.515Z,83.01
2022-11-24T23:08:44.772Z,82.99
2022-11-24T23:11:49.120Z,83.39
2022-11-24T23:14:51.714Z,83.00
2022-11-24T23:17:54.832Z,83.32
2022-11-24T23:20:57.645Z,83.31
2022-11-24T23:24:02.447Z,83.69
2022-11-24T23:27:05.511Z,83.77
2022-11-24T23:30:08.824Z,83.89
2022-11-24T23:33:11.446Z,84.07
2022-11-24T23:36:19.839Z,84.15
2022-11-24T23:39:24.380Z,83.99
2022-11-24T23:42:27.898Z,84.01
2022-11-24T23:45:30.586Z,83.22
2022-11-24T23:48:36.684Z,83.56
2022-11-24T23:51:42.044Z,83.36
2022-11-24T23:54:44.723Z,83.34
2022-11-24T23:57:47.295Z,83.43
